createdAt,value
2018-09-23T00:00:17.309Z,3.50
2018-09-23T00:02:46.463Z,4.00
2018-09-23T00:05:15.487Z,3.60
2018-09-23T00:07:44.815Z,5.17
2018-09-23T00:10:14.101Z,4.08
2018-09-23T00:12:43.460Z,3.30
2018-09-23T00:15:12.544Z,3.83
2018-09-23T00:17:41.660Z,3.80
2018-09-23T00:20:10.819Z,3.80
2018-09-23T00:22:39.617Z,4.03
2018-09-23T00:25:08.521Z,5.23
2018-09-23T00:27:37.354Z,4.00
2018-09-23T00:30:06.451Z,3.60
2018-09-23T00:32:35.624Z,3.73
2018-09-23T00:35:04.941Z,4.73
2018-09-23T00:37:34.163Z,4.20
2018-09-23T00:40:03.525Z,6.27
2018-09-23T00:42:32.729Z,4.50
2018-09-23T00:45:02.054Z,4.80
2018-09-23T00:47:31.370Z,4.40
2018-09-23T00:50:00.478Z,5.30
2018-09-23T00:52:29.615Z,4.70
2018-09-23T00:54:58.927Z,4.47
2018-09-23T00:57:28.383Z,4.80
2018-09-23T00:59:57.724Z,7.50
2018-09-23T01:02:26.982Z,4.90
2018-09-23T01:04:56.352Z,6.10
2018-09-23T01:07:25.684Z,6.50
2018-09-23T01:09:54.947Z,6.30
2018-09-23T01:12:24.239Z,6.57
2018-09-23T01:14:53.719Z,5.93
2018-09-23T01:17:22.856Z,4.97
2018-09-23T01:19:52.237Z,5.33
2018-09-23T01:22:21.557Z,5.27
2018-09-23T01:24:50.782Z,5.47
2018-09-23T01:27:19.922Z,5.67
2018-09-23T01:29:49.265Z,5.63
2018-09-23T01:32:18.582Z,6.12
2018-09-23T01:34:47.841Z,4.87
2018-09-23T01:37:16.944Z,5.87
2018-09-23T01:39:46.071Z,5.73
2018-09-23T01:42:15.270Z,6.03
2018-09-23T01:44:44.560Z,6.10
2018-09-23T01:47:13.780Z,5.63
2018-09-23T01:49:42.957Z,5.93
2018-09-23T01:52:12.676Z,6.03
2018-09-23T01:54:42.213Z,5.97
2018-09-23T01:57:11.493Z,6.20
2018-09-23T01:59:40.698Z,6.43
2018-09-23T02:02:09.794Z,6.33
2018-09-23T02:04:39.022Z,6.90
2018-09-23T02:07:08.137Z,7.35
2018-09-23T02:09:37.426Z,6.13
2018-09-23T02:12:06.680Z,7.97
2018-09-23T02:14:35.960Z,7.20
2018-09-23T02:17:05.146Z,6.43
2018-09-23T02:19:34.571Z,6.97
2018-09-23T02:22:03.783Z,7.07
2018-09-23T02:24:33.011Z,7.07
2018-09-23T02:27:02.330Z,7.60
2018-09-23T02:29:31.592Z,7.60
2018-09-23T02:32:00.734Z,6.87
2018-09-23T02:34:29.999Z,11.60
2018-09-23T02:36:59.149Z,7.73
2018-09-23T02:39:28.361Z,7.33
2018-09-23T02:41:57.661Z,7.50
2018-09-23T02:44:26.669Z,7.57
2018-09-23T02:46:55.762Z,12.97
2018-09-23T02:49:24.945Z,7.87
2018-09-23T02:51:54.958Z,9.20
2018-09-23T02:54:24.430Z,7.13
2018-09-23T02:56:54.225Z,7.20
2018-09-23T02:59:23.520Z,8.40
2018-09-23T03:01:52.891Z,7.27
2018-09-23T03:04:22.082Z,7.40
2018-09-23T03:06:51.313Z,7.93
2018-09-23T03:09:20.457Z,8.53
2018-09-23T03:11:49.666Z,12.60
2018-09-23T03:14:18.907Z,8.20
2018-09-23T03:16:48.295Z,10.73
2018-09-23T03:19:17.505Z,7.90
2018-09-23T03:21:46.954Z,8.93
2018-09-23T03:24:16.187Z,13.87
2018-09-23T03:26:45.598Z,9.97
2018-09-23T03:29:14.864Z,11.83
2018-09-23T03:31:44.215Z,9.07
2018-09-23T03:34:13.545Z,12.50
2018-09-23T03:36:42.815Z,10.07
2018-09-23T03:39:12.076Z,15.32
2018-09-23T03:41:41.147Z,10.57
2018-09-23T03:44:10.746Z,9.53
2018-09-23T03:46:40.202Z,9.43
2018-09-23T03:49:09.559Z,10.37
2018-09-23T03:51:38.863Z,9.80
2018-09-23T03:54:11.389Z,9.40
2018-09-23T03:56:41.339Z,8.30
2018-09-23T03:59:10.910Z,8.80
2018-09-23T04:01:40.261Z,8.07
2018-09-23T04:04:10.229Z,9.25
2018-09-23T04:06:39.388Z,9.23
2018-09-23T04:09:09.030Z,16.13
2018-09-23T04:11:38.183Z,15.27
2018-09-23T04:14:07.397Z,10.03
2018-09-23T04:16:36.570Z,9.93
2018-09-23T04:19:05.696Z,11.03
2018-09-23T04:21:34.923Z,9.98
2018-09-23T04:24:04.949Z,9.47
2018-09-23T04:26:34.159Z,15.10
2018-09-23T04:29:03.277Z,9.73
2018-09-23T04:31:32.603Z,12.57
2018-09-23T04:34:01.803Z,9.53
2018-09-23T04:36:31.033Z,10.87
2018-09-23T04:39:00.333Z,9.67
2018-09-23T04:41:29.627Z,10.93
2018-09-23T04:43:58.936Z,10.07
2018-09-23T04:46:28.201Z,12.20
2018-09-23T04:48:57.421Z,12.33
2018-09-23T04:51:26.645Z,11.17
2018-09-23T04:53:55.802Z,10.83
2018-09-23T04:56:24.982Z,11.27
2018-09-23T04:58:54.069Z,9.73
2018-09-23T05:01:23.362Z,10.73
2018-09-23T05:03:52.621Z,11.13
2018-09-23T05:06:21.972Z,10.73
2018-09-23T05:08:51.275Z,11.57
2018-09-23T05:11:20.713Z,12.70
2018-09-23T05:13:50.182Z,10.47
2018-09-23T05:16:19.962Z,9.77
2018-09-23T05:18:49.304Z,9.77
2018-09-23T05:21:18.696Z,10.40
2018-09-23T05:23:47.949Z,10.20
2018-09-23T05:26:17.153Z,10.50
2018-09-23T05:28:46.490Z,12.03
2018-09-23T05:31:15.605Z,9.50
2018-09-23T05:33:44.904Z,15.57
2018-09-23T05:36:14.128Z,13.73
2018-09-23T05:38:43.348Z,9.40
2018-09-23T05:41:12.564Z,10.15
2018-09-23T05:43:42.087Z,10.50
2018-09-23T05:46:11.557Z,9.80
2018-09-23T05:48:40.919Z,10.60
2018-09-23T05:51:10.566Z,10.00
2018-09-23T05:53:40.116Z,9.70
2018-09-23T05:56:09.275Z,9.60
2018-09-23T05:58:38.624Z,12.93
2018-09-23T06:01:07.972Z,10.60
2018-09-23T06:03:37.707Z,12.97
2018-09-23T06:06:07.202Z,9.83
2018-09-23T06:08:37.202Z,11.07
2018-09-23T06:11:06.712Z,10.77
2018-09-23T06:13:36.067Z,9.80
2018-09-23T06:16:05.308Z,10.03
2018-09-23T06:18:35.097Z,12.93
2018-09-23T06:21:05.064Z,9.63
2018-09-23T06:23:34.805Z,10.40
2018-09-23T06:26:06.006Z,10.03
2018-09-23T06:28:35.470Z,13.37
2018-09-23T06:31:05.511Z,10.07
2018-09-23T06:33:34.785Z,10.67
2018-09-23T06:36:04.851Z,10.75
2018-09-23T06:38:34.104Z,9.93
2018-09-23T06:41:03.499Z,12.43
2018-09-23T06:43:32.701Z,11.33
2018-09-23T06:46:03.183Z,10.70
2018-09-23T06:48:33.036Z,13.00
2018-09-23T06:51:01.810Z,10.57
2018-09-23T06:53:30.595Z,13.93
2018-09-23T06:55:59.324Z,10.93
2018-09-23T06:58:28.569Z,10.27
2018-09-23T07:00:57.814Z,10.40
2018-09-23T07:03:27.151Z,10.03
2018-09-23T07:05:56.580Z,10.97
2018-09-23T07:08:25.751Z,10.17
2018-09-23T07:10:55.061Z,15.03
2018-09-23T07:13:24.500Z,10.30
2018-09-23T07:15:54.136Z,10.87
2018-09-23T07:18:23.507Z,14.97
2018-09-23T07:20:52.860Z,12.40
2018-09-23T07:23:22.196Z,13.03
2018-09-23T07:25:51.631Z,10.67
2018-09-23T07:28:21.003Z,10.90
2018-09-23T07:30:50.631Z,12.95
2018-09-23T07:33:20.155Z,12.23
2018-09-23T07:35:50.315Z,11.40
2018-09-23T07:38:18.971Z,10.73
2018-09-23T07:40:47.623Z,11.80
2018-09-23T07:43:16.443Z,14.30
2018-09-23T07:45:45.256Z,21.00
2018-09-23T07:48:14.488Z,13.77
2018-09-23T07:50:43.653Z,10.80
2018-09-23T07:53:12.535Z,12.27
2018-09-23T07:55:41.686Z,14.60
2018-09-23T07:58:10.957Z,19.40
2018-09-23T08:00:40.156Z,16.13
2018-09-23T08:03:10.062Z,12.77
2018-09-23T08:05:39.342Z,21.73
2018-09-23T08:08:08.592Z,14.17
2018-09-23T08:10:38.018Z,15.23
2018-09-23T08:13:07.668Z,19.43
2018-09-23T08:15:38.163Z,18.57
2018-09-23T08:18:07.794Z,16.90
2018-09-23T08:20:37.275Z,14.33
2018-09-23T08:23:06.898Z,16.50
2018-09-23T08:25:35.829Z,18.20
2018-09-23T08:28:04.806Z,19.83
2018-09-23T08:30:33.506Z,18.33
2018-09-23T08:33:02.276Z,19.87
2018-09-23T08:35:31.209Z,14.77
2018-09-23T08:38:00.062Z,18.90
2018-09-23T08:40:28.866Z,18.03
2018-09-23T08:43:00.988Z,20.00
2018-09-23T08:45:30.026Z,14.23
2018-09-23T08:47:58.973Z,14.97
2018-09-23T08:50:27.849Z,17.30
2018-09-23T08:52:56.989Z,16.10
2018-09-23T08:55:25.793Z,14.47
2018-09-23T08:57:54.879Z,15.10
2018-09-23T09:00:24.373Z,16.00
2018-09-23T09:02:53.926Z,14.10
2018-09-23T09:05:22.835Z,14.73
2018-09-23T09:07:52.601Z,14.33
2018-09-23T09:10:21.505Z,14.40
2018-09-23T09:12:50.477Z,16.60
2018-09-23T09:15:19.260Z,13.53
2018-09-23T09:17:47.995Z,14.63
2018-09-23T09:20:16.879Z,14.30
2018-09-23T09:22:45.726Z,14.40
2018-09-23T09:25:14.921Z,14.03
2018-09-23T09:27:43.954Z,15.07
2018-09-23T09:30:12.883Z,16.93
2018-09-23T09:32:41.755Z,13.47
2018-09-23T09:35:11.011Z,14.50
2018-09-23T09:37:40.405Z,15.17
2018-09-23T09:40:10.180Z,15.37
2018-09-23T09:42:39.794Z,13.37
2018-09-23T09:45:09.792Z,14.03
2018-09-23T09:47:39.640Z,13.80
2018-09-23T09:50:08.960Z,13.70
2018-09-23T09:52:38.417Z,14.05
2018-09-23T09:55:08.171Z,13.10
2018-09-23T09:57:37.370Z,14.33
2018-09-23T10:00:07.242Z,12.80
2018-09-23T10:02:36.461Z,13.63
2018-09-23T10:05:08.196Z,14.67
2018-09-23T10:07:37.147Z,13.13
2018-09-23T10:10:05.942Z,13.63
2018-09-23T10:12:34.735Z,15.53
2018-09-23T10:15:04.450Z,12.67
2018-09-23T10:17:33.326Z,13.13
2018-09-23T10:20:02.464Z,13.13
2018-09-23T10:22:31.811Z,13.13
2018-09-23T10:25:00.720Z,13.27
2018-09-23T10:27:29.714Z,13.63
2018-09-23T10:29:58.531Z,13.50
2018-09-23T10:32:27.701Z,15.30
2018-09-23T10:34:56.959Z,13.87
2018-09-23T10:37:26.339Z,12.50
2018-09-23T10:39:55.746Z,12.40
2018-09-23T10:42:25.518Z,12.70
2018-09-23T10:44:54.192Z,11.63
2018-09-23T10:47:22.979Z,15.10
2018-09-23T10:49:51.772Z,12.43
2018-09-23T10:52:20.456Z,12.60
2018-09-23T10:54:49.249Z,11.63
2018-09-23T10:57:18.421Z,12.57
2018-09-23T10:59:47.461Z,12.17
2018-09-23T11:02:16.696Z,12.10
2018-09-23T11:04:45.844Z,11.37
2018-09-23T11:07:15.519Z,11.80
2018-09-23T11:09:44.568Z,11.10
2018-09-23T11:12:15.103Z,11.70
2018-09-23T11:14:45.503Z,10.60
2018-09-23T11:17:15.958Z,10.97
2018-09-23T11:19:45.785Z,10.77
2018-09-23T11:22:14.950Z,12.50
2018-09-23T11:24:45.029Z,10.20
2018-09-23T11:27:14.680Z,11.07
2018-09-23T11:29:43.633Z,10.73
2018-09-23T11:32:12.463Z,9.87
2018-09-23T11:34:41.138Z,9.90
2018-09-23T11:37:10.326Z,9.47
2018-09-23T11:39:39.146Z,9.60
2018-09-23T11:42:08.442Z,8.90
2018-09-23T11:44:39.181Z,8.90
2018-09-23T11:47:08.455Z,8.23
2018-09-23T11:49:39.618Z,8.97
2018-09-23T11:52:08.757Z,8.03
2018-09-23T11:54:37.653Z,8.37
2018-09-23T11:57:06.673Z,7.70
2018-09-23T11:59:35.572Z,6.87
2018-09-23T12:02:05.201Z,7.57
2018-09-23T12:04:33.947Z,7.40
2018-09-23T12:07:02.660Z,7.27
2018-09-23T12:09:31.385Z,6.20
2018-09-23T12:12:00.920Z,6.00
2018-09-23T12:14:29.848Z,6.60
2018-09-23T12:17:00.087Z,10.93
2018-09-23T12:19:28.891Z,8.13
2018-09-23T12:21:57.847Z,6.30
2018-09-23T12:24:28.305Z,5.73
2018-09-23T12:26:57.209Z,6.03
2018-09-23T12:29:25.967Z,6.23
2018-09-23T12:31:55.094Z,5.67
2018-09-23T12:34:24.239Z,5.33
2018-09-23T12:36:53.193Z,5.47
2018-09-23T12:39:22.419Z,5.10
2018-09-23T12:41:51.182Z,4.70
2018-09-23T12:44:20.071Z,5.40
2018-09-23T12:46:49.159Z,4.83
2018-09-23T12:49:17.988Z,4.73
2018-09-23T12:51:46.919Z,4.50
2018-09-23T12:54:15.788Z,3.87
2018-09-23T12:56:44.563Z,3.80
2018-09-23T12:59:14.093Z,3.97
2018-09-23T13:01:43.336Z,4.23
2018-09-23T13:04:12.116Z,3.50
2018-09-23T13:06:41.345Z,3.57
2018-09-23T13:09:10.227Z,3.17
2018-09-23T13:11:39.127Z,3.33
2018-09-23T13:14:08.438Z,3.30
2018-09-23T13:16:37.673Z,3.27
2018-09-23T13:19:06.525Z,2.70
2018-09-23T13:21:35.315Z,2.30
2018-09-23T13:24:04.676Z,2.60
2018-09-23T13:26:33.480Z,2.30
2018-09-23T13:29:02.245Z,2.30
2018-09-23T13:31:30.937Z,2.57
2018-09-23T13:33:59.656Z,2.80
2018-09-23T13:36:28.421Z,2.10
2018-09-23T13:38:57.129Z,2.53
2018-09-23T13:41:27.035Z,2.07
2018-09-23T13:43:55.891Z,2.27
2018-09-23T13:46:24.854Z,2.37
2018-09-23T13:48:53.880Z,2.40
2018-09-23T13:51:22.504Z,2.10
2018-09-23T13:53:51.367Z,2.30
2018-09-23T13:56:20.265Z,2.20
2018-09-23T13:58:49.175Z,2.23
2018-09-23T14:01:17.963Z,1.83
2018-09-23T14:03:46.705Z,1.97
2018-09-23T14:06:16.193Z,2.33
2018-09-23T14:08:44.856Z,2.37
2018-09-23T14:11:13.987Z,1.90
2018-09-23T14:13:42.628Z,2.20
2018-09-23T14:16:11.819Z,2.27
2018-09-23T14:18:40.489Z,1.83
2018-09-23T14:21:09.298Z,1.90
2018-09-23T14:23:38.073Z,2.00
2018-09-23T14:26:06.864Z,1.87
2018-09-23T14:28:35.588Z,1.67
2018-09-23T14:31:04.661Z,2.05
2018-09-23T14:33:33.397Z,1.50
2018-09-23T14:36:02.343Z,1.90
2018-09-23T14:38:31.021Z,1.53
2018-09-23T14:40:59.708Z,1.50
2018-09-23T14:43:28.393Z,1.70
2018-09-23T14:45:57.173Z,1.97
2018-09-23T14:48:25.900Z,1.90
2018-09-23T14:50:54.676Z,1.50
2018-09-23T14:53:23.428Z,1.50
2018-09-23T14:55:52.196Z,1.50
2018-09-23T14:58:20.950Z,1.30
2018-09-23T15:00:49.965Z,1.70
2018-09-23T15:03:19.738Z,1.50
2018-09-23T15:05:48.948Z,1.70
2018-09-23T15:08:17.831Z,1.33
2018-09-23T15:10:46.908Z,1.70
2018-09-23T15:13:15.734Z,1.70
2018-09-23T15:15:44.476Z,1.40
2018-09-23T15:18:13.418Z,1.10
2018-09-23T15:20:42.327Z,1.37
2018-09-23T15:23:11.011Z,1.30
2018-09-23T15:25:39.980Z,1.10
2018-09-23T15:28:08.664Z,1.17
2018-09-23T15:30:37.588Z,1.20
2018-09-23T15:33:06.731Z,1.00
2018-09-23T15:35:35.682Z,0.90
2018-09-23T15:38:04.372Z,0.87
2018-09-23T15:40:33.115Z,0.80
2018-09-23T15:43:01.854Z,1.10
2018-09-23T15:45:30.568Z,0.70
2018-09-23T15:47:59.433Z,1.50
2018-09-23T15:50:28.383Z,0.90
2018-09-23T15:52:57.091Z,1.10
2018-09-23T15:55:25.939Z,1.00
2018-09-23T15:57:54.779Z,1.10
2018-09-23T16:00:23.387Z,1.07
2018-09-23T16:02:52.039Z,1.00
2018-09-23T16:05:20.772Z,0.87
2018-09-23T16:07:49.528Z,0.90
2018-09-23T16:10:18.132Z,0.80
2018-09-23T16:12:46.899Z,0.90
2018-09-23T16:15:15.718Z,1.03
2018-09-23T16:17:44.525Z,0.90
2018-09-23T16:20:13.229Z,0.90
2018-09-23T16:22:42.115Z,0.93
2018-09-23T16:25:11.080Z,0.93
2018-09-23T16:27:39.754Z,1.00
2018-09-23T16:30:08.537Z,1.10
2018-09-23T16:32:37.390Z,0.63
2018-09-23T16:35:06.802Z,0.93
2018-09-23T16:37:35.567Z,0.60
2018-09-23T16:40:04.288Z,1.20
2018-09-23T16:42:33.229Z,0.80
2018-09-23T16:45:04.081Z,0.73
2018-09-23T16:47:33.005Z,0.90
2018-09-23T16:50:01.701Z,0.83
2018-09-23T16:52:30.600Z,0.97
2018-09-23T16:54:59.361Z,1.07
2018-09-23T16:57:28.132Z,0.90
2018-09-23T16:59:56.797Z,0.90
2018-09-23T17:02:25.458Z,1.03
2018-09-23T17:04:54.292Z,1.10
2018-09-23T17:07:23.070Z,0.93
2018-09-23T17:09:51.723Z,1.10
2018-09-23T17:12:20.474Z,1.50
2018-09-23T17:14:49.161Z,1.00
2018-09-23T17:17:17.869Z,1.00
2018-09-23T17:19:46.694Z,0.90
2018-09-23T17:22:15.403Z,1.10
2018-09-23T17:24:44.200Z,0.90
2018-09-23T17:27:12.999Z,0.90
2018-09-23T17:29:41.748Z,1.00
2018-09-23T17:32:10.639Z,0.90
2018-09-23T17:34:39.329Z,0.93
2018-09-23T17:37:08.362Z,1.17
2018-09-23T17:39:37.063Z,1.13
2018-09-23T17:42:06.046Z,0.97
2018-09-23T17:44:35.001Z,1.10
2018-09-23T17:47:05.490Z,0.80
2018-09-23T17:49:34.439Z,1.00
2018-09-23T17:52:03.387Z,1.17
2018-09-23T17:54:32.069Z,1.07
2018-09-23T17:57:00.759Z,1.13
2018-09-23T17:59:29.460Z,1.10
2018-09-23T18:01:58.194Z,1.47
2018-09-23T18:04:26.961Z,1.10
2018-09-23T18:06:55.744Z,0.93
2018-09-23T18:09:24.441Z,0.90
2018-09-23T18:11:53.144Z,0.87
2018-09-23T18:14:22.081Z,1.23
2018-09-23T18:16:50.772Z,0.90
2018-09-23T18:19:20.098Z,0.80
2018-09-23T18:21:48.942Z,1.23
2018-09-23T18:24:17.667Z,1.10
2018-09-23T18:26:46.975Z,1.40
2018-09-23T18:29:15.663Z,1.00
2018-09-23T18:31:44.498Z,1.27
2018-09-23T18:34:13.233Z,0.90
2018-09-23T18:36:41.994Z,0.73
2018-09-23T18:39:10.899Z,1.07
2018-09-23T18:41:39.769Z,1.10
2018-09-23T18:44:08.536Z,1.10
2018-09-23T18:46:37.281Z,0.90
2018-09-23T18:49:05.972Z,1.30
2018-09-23T18:51:34.770Z,0.63
2018-09-23T18:54:09.615Z,0.90
2018-09-23T18:56:38.503Z,0.90
2018-09-23T18:59:07.274Z,1.00
2018-09-23T19:01:36.107Z,1.10
2018-09-23T19:04:04.823Z,1.10
2018-09-23T19:06:33.563Z,0.97
2018-09-23T19:09:03.720Z,1.20
2018-09-23T19:11:32.448Z,2.60
2018-09-23T19:14:01.672Z,1.30
2018-09-23T19:16:31.788Z,1.17
2018-09-23T19:19:00.517Z,1.17
2018-09-23T19:21:29.736Z,1.20
2018-09-23T19:23:58.911Z,1.27
2018-09-23T19:26:28.105Z,1.23
2018-09-23T19:28:56.836Z,0.77
2018-09-23T19:31:25.612Z,1.20
2018-09-23T19:33:54.288Z,1.30
2018-09-23T19:36:23.124Z,1.00
2018-09-23T19:38:51.858Z,0.80
2018-09-23T19:41:20.553Z,0.80
2018-09-23T19:43:49.361Z,0.67
2018-09-23T19:46:18.108Z,0.93
2018-09-23T19:48:46.832Z,1.00
2018-09-23T19:51:15.509Z,1.27
2018-09-23T19:53:44.285Z,1.10
2018-09-23T19:56:13.467Z,1.17
2018-09-23T19:58:42.172Z,1.10
2018-09-23T20:01:11.266Z,1.37
2018-09-23T20:03:40.044Z,1.20
2018-09-23T20:06:08.863Z,0.87
2018-09-23T20:08:37.657Z,0.90
2018-09-23T20:11:06.792Z,0.97
2018-09-23T20:13:35.549Z,1.30
2018-09-23T20:16:04.677Z,0.80
2018-09-23T20:18:33.341Z,0.80
2018-09-23T20:21:02.192Z,1.10
2018-09-23T20:23:31.573Z,1.40
2018-09-23T20:26:00.329Z,1.20
2018-09-23T20:28:29.120Z,1.10
2018-09-23T20:30:57.908Z,0.80
2018-09-23T20:33:27.651Z,1.37
2018-09-23T20:35:56.980Z,0.70
2018-09-23T20:38:25.713Z,0.80
2018-09-23T20:40:54.434Z,1.10
2018-09-23T20:43:23.233Z,1.10
2018-09-23T20:45:52.072Z,1.20
2018-09-23T20:48:20.795Z,1.10
2018-09-23T20:50:49.556Z,0.80
2018-09-23T20:53:18.298Z,0.93
2018-09-23T20:55:47.260Z,1.00
2018-09-23T20:58:15.947Z,1.00
2018-09-23T21:00:45.139Z,0.80
2018-09-23T21:03:14.189Z,1.17
2018-09-23T21:05:44.310Z,0.97
2018-09-23T21:08:12.975Z,1.13
2018-09-23T21:10:41.727Z,0.90
2018-09-23T21:13:10.500Z,0.90
2018-09-23T21:15:39.220Z,0.80
2018-09-23T21:18:07.915Z,1.10
2018-09-23T21:20:36.567Z,1.87
2018-09-23T21:23:05.639Z,1.37
2018-09-23T21:25:34.469Z,1.10
2018-09-23T21:28:04.180Z,1.13
2018-09-23T21:30:32.883Z,1.17
2018-09-23T21:33:01.656Z,0.77
2018-09-23T21:35:30.436Z,1.13
2018-09-23T21:37:59.147Z,1.10
2018-09-23T21:40:27.905Z,1.10
2018-09-23T21:42:56.633Z,1.00
2018-09-23T21:45:25.466Z,1.30
2018-09-23T21:47:54.211Z,0.70
2018-09-23T21:50:22.962Z,1.00
2018-09-23T21:52:51.623Z,0.80
2018-09-23T21:55:20.565Z,1.43
2018-09-23T21:57:49.320Z,1.30
2018-09-23T22:00:18.180Z,1.00
2018-09-23T22:02:47.085Z,1.30
2018-09-23T22:05:15.804Z,0.90
2018-09-23T22:07:45.658Z,1.10
2018-09-23T22:10:14.342Z,0.97
2018-09-23T22:12:43.068Z,1.40
2018-09-23T22:15:16.125Z,1.00
2018-09-23T22:17:45.974Z,0.93
2018-09-23T22:20:14.803Z,1.00
2018-09-23T22:22:43.408Z,0.97
2018-09-23T22:25:12.240Z,1.47
2018-09-23T22:27:41.050Z,0.90
2018-09-23T22:30:09.772Z,1.42
2018-09-23T22:32:38.626Z,1.00
2018-09-23T22:35:07.417Z,0.97
2018-09-23T22:37:36.588Z,1.10
2018-09-23T22:40:06.240Z,1.03
2018-09-23T22:42:35.974Z,0.93
2018-09-23T22:45:05.084Z,1.22
2018-09-23T22:47:33.878Z,1.00
2018-09-23T22:50:03.177Z,1.07
2018-09-23T22:52:31.994Z,0.80
2018-09-23T22:55:00.748Z,1.07
2018-09-23T22:57:29.557Z,1.27
2018-09-23T22:59:58.263Z,0.80
2018-09-23T23:02:27.044Z,1.03
2018-09-23T23:04:55.781Z,0.90
2018-09-23T23:07:24.493Z,1.30
2018-09-23T23:09:53.437Z,0.97
2018-09-23T23:12:22.174Z,1.13
2018-09-23T23:14:50.924Z,1.43
2018-09-23T23:17:19.655Z,1.17
2018-09-23T23:19:48.424Z,0.90
2018-09-23T23:22:17.409Z,0.60
2018-09-23T23:27:59.737Z,0.93
2018-09-23T23:30:28.553Z,0.80
2018-09-23T23:32:57.315Z,1.03
2018-09-23T23:35:26.137Z,1.07
2018-09-23T23:37:55.463Z,0.70
2018-09-23T23:40:24.170Z,0.97
2018-09-23T23:42:52.964Z,1.10
2018-09-23T23:45:21.736Z,0.90
2018-09-23T23:47:50.551Z,0.77
2018-09-23T23:50:19.413Z,1.00
2018-09-23T23:52:48.098Z,1.10
2018-09-23T23:55:16.763Z,1.10
2018-09-23T23:57:45.898Z,1.17
